sensor_id;sensor_type;location;lat;lon;timestamp;pressure;altitude;pressure_sealevel;temperature
25514;BMP180;48128;54.242;10.280;2023-06-26T00:01:40;101022.00;;;17.30
25514;BMP180;48128;54.242;10.280;2023-06-26T00:04:08;101020.00;;;17.20
25514;BMP180;48128;54.242;10.280;2023-06-26T00:06:41;101020.00;;;17.20
25514;BMP180;48128;54.242;10.280;2023-06-26T00:09:09;101012.00;;;17.20
25514;BMP180;48128;54.242;10.280;2023-06-26T00:11:36;101009.00;;;17.10
25514;BMP180;48128;54.242;10.280;2023-06-26T00:14:03;101011.00;;;17.10
25514;BMP180;48128;54.242;10.280;2023-06-26T00:16:30;101015.00;;;17.10
25514;BMP180;48128;54.242;10.280;2023-06-26T00:18:58;101017.00;;;17.10
25514;BMP180;48128;54.242;10.280;2023-06-26T00:21:27;101009.00;;;17.10
25514;BMP180;48128;54.242;10.280;2023-06-26T00:23:54;101008.00;;;17.00
25514;BMP180;48128;54.242;10.280;2023-06-26T00:26:21;101003.00;;;17.00
25514;BMP180;48128;54.242;10.280;2023-06-26T00:28:49;101000.00;;;17.00
25514;BMP180;48128;54.242;10.280;2023-06-26T00:31:15;101000.00;;;16.90
25514;BMP180;48128;54.242;10.280;2023-06-26T00:33:43;100999.00;;;16.90
25514;BMP180;48128;54.242;10.280;2023-06-26T00:36:10;100998.00;;;16.90
25514;BMP180;48128;54.242;10.280;2023-06-26T00:38:37;100994.00;;;16.90
25514;BMP180;48128;54.242;10.280;2023-06-26T00:41:04;100989.00;;;16.90
25514;BMP180;48128;54.242;10.280;2023-06-26T00:43:31;100991.00;;;16.80
25514;BMP180;48128;54.242;10.280;2023-06-26T00:45:58;100994.00;;;16.80
25514;BMP180;48128;54.242;10.280;2023-06-26T00:48:25;100989.00;;;16.80
25514;BMP180;48128;54.242;10.280;2023-06-26T00:50:52;100982.00;;;16.80
25514;BMP180;48128;54.242;10.280;2023-06-26T00:53:20;100983.00;;;16.80
25514;BMP180;48128;54.242;10.280;2023-06-26T00:55:47;100984.00;;;16.70
25514;BMP180;48128;54.242;10.280;2023-06-26T00:58:14;100978.00;;;16.70
25514;BMP180;48128;54.242;10.280;2023-06-26T01:00:41;100969.00;;;16.70
25514;BMP180;48128;54.242;10.280;2023-06-26T01:03:09;100972.00;;;16.70
25514;BMP180;48128;54.242;10.280;2023-06-26T01:05:36;100969.00;;;16.70
25514;BMP180;48128;54.242;10.280;2023-06-26T01:08:05;100960.00;;;16.70
25514;BMP180;48128;54.242;10.280;2023-06-26T01:10:32;100969.00;;;16.70
25514;BMP180;48128;54.242;10.280;2023-06-26T01:12:59;100953.00;;;16.70
25514;BMP180;48128;54.242;10.280;2023-06-26T01:15:26;100965.00;;;16.70
25514;BMP180;48128;54.242;10.280;2023-06-26T01:17:53;100955.00;;;16.70
25514;BMP180;48128;54.242;10.280;2023-06-26T01:20:20;100967.00;;;16.70
25514;BMP180;48128;54.242;10.280;2023-06-26T01:23:12;100959.00;;;16.70
25514;BMP180;48128;54.242;10.280;2023-06-26T01:28:31;100960.00;;;16.60
25514;BMP180;48128;54.242;10.280;2023-06-26T01:30:59;100951.00;;;16.60
25514;BMP180;48128;54.242;10.280;2023-06-26T01:33:26;100948.00;;;16.60
25514;BMP180;48128;54.242;10.280;2023-06-26T01:35:53;100949.00;;;16.60
25514;BMP180;48128;54.242;10.280;2023-06-26T01:38:21;100951.00;;;16.60
25514;BMP180;48128;54.242;10.280;2023-06-26T01:40:50;100940.00;;;16.60
25514;BMP180;48128;54.242;10.280;2023-06-26T01:46:31;100938.00;;;16.50
25514;BMP180;48128;54.242;10.280;2023-06-26T01:52:07;100935.00;;;16.50
25514;BMP180;48128;54.242;10.280;2023-06-26T01:54:42;100919.00;;;16.40
25514;BMP180;48128;54.242;10.280;2023-06-26T01:57:13;100935.00;;;16.40
25514;BMP180;48128;54.242;10.280;2023-06-26T01:59:41;100923.00;;;16.40
25514;BMP180;48128;54.242;10.280;2023-06-26T02:02:08;100924.00;;;16.40
25514;BMP180;48128;54.242;10.280;2023-06-26T02:04:35;100919.00;;;16.40
25514;BMP180;48128;54.242;10.280;2023-06-26T02:07:04;100908.00;;;16.40
25514;BMP180;48128;54.242;10.280;2023-06-26T02:09:31;100912.00;;;16.40
25514;BMP180;48128;54.242;10.280;2023-06-26T02:11:58;100905.00;;;16.30
25514;BMP180;48128;54.242;10.280;2023-06-26T02:14:25;100900.00;;;16.30
25514;BMP180;48128;54.242;10.280;2023-06-26T02:16:52;100900.00;;;16.30
25514;BMP180;48128;54.242;10.280;2023-06-26T02:19:19;100898.00;;;16.30
25514;BMP180;48128;54.242;10.280;2023-06-26T02:21:50;100905.00;;;16.20
25514;BMP180;48128;54.242;10.280;2023-06-26T02:24:17;100904.00;;;16.20
25514;BMP180;48128;54.242;10.280;2023-06-26T02:26:44;100905.00;;;16.20
25514;BMP180;48128;54.242;10.280;2023-06-26T02:29:12;100901.00;;;16.20
25514;BMP180;48128;54.242;10.280;2023-06-26T02:31:39;100901.00;;;16.20
25514;BMP180;48128;54.242;10.280;2023-06-26T02:34:06;100891.00;;;16.20
25514;BMP180;48128;54.242;10.280;2023-06-26T02:36:33;100890.00;;;16.20
25514;BMP180;48128;54.242;10.280;2023-06-26T02:39:00;100894.00;;;16.20
25514;BMP180;48128;54.242;10.280;2023-06-26T02:41:27;100888.00;;;16.20
25514;BMP180;48128;54.242;10.280;2023-06-26T02:43:54;100884.00;;;16.20
25514;BMP180;48128;54.242;10.280;2023-06-26T02:46:22;100880.00;;;16.20
25514;BMP180;48128;54.242;10.280;2023-06-26T02:48:49;100876.00;;;16.20
25514;BMP180;48128;54.242;10.280;2023-06-26T02:51:16;100883.00;;;16.20
25514;BMP180;48128;54.242;10.280;2023-06-26T02:53:43;100882.00;;;16.20
25514;BMP180;48128;54.242;10.280;2023-06-26T02:56:10;100881.00;;;16.20
25514;BMP180;48128;54.242;10.280;2023-06-26T02:58:37;100878.00;;;16.20
25514;BMP180;48128;54.242;10.280;2023-06-26T03:01:04;100871.00;;;16.20
25514;BMP180;48128;54.242;10.280;2023-06-26T03:03:31;100870.00;;;16.20
25514;BMP180;48128;54.242;10.280;2023-06-26T03:06:07;100876.00;;;16.20
25514;BMP180;48128;54.242;10.280;2023-06-26T03:08:36;100870.00;;;16.10
25514;BMP180;48128;54.242;10.280;2023-06-26T03:11:03;100870.00;;;16.10
25514;BMP180;48128;54.242;10.280;2023-06-26T03:13:31;100864.00;;;16.10
25514;BMP180;48128;54.242;10.280;2023-06-26T03:15:58;100865.00;;;16.10
25514;BMP180;48128;54.242;10.280;2023-06-26T03:18:26;100865.00;;;16.10
25514;BMP180;48128;54.242;10.280;2023-06-26T03:20:54;100861.00;;;16.20
25514;BMP180;48128;54.242;10.280;2023-06-26T03:23:22;100857.00;;;16.20
25514;BMP180;48128;54.242;10.280;2023-06-26T03:25:50;100861.00;;;16.20
25514;BMP180;48128;54.242;10.280;2023-06-26T03:28:17;100855.00;;;16.20
25514;BMP180;48128;54.242;10.280;2023-06-26T03:30:45;100866.00;;;16.20
25514;BMP180;48128;54.242;10.280;2023-06-26T03:33:12;100846.00;;;16.20
25514;BMP180;48128;54.242;10.280;2023-06-26T03:35:39;100857.00;;;16.30
25514;BMP180;48128;54.242;10.280;2023-06-26T03:38:06;100851.00;;;16.30
25514;BMP180;48128;54.242;10.280;2023-06-26T03:40:33;100853.00;;;16.30
25514;BMP180;48128;54.242;10.280;2023-06-26T03:43:00;100846.00;;;16.30
25514;BMP180;48128;54.242;10.280;2023-06-26T03:45:28;100852.00;;;16.30
25514;BMP180;48128;54.242;10.280;2023-06-26T03:47:55;100844.00;;;16.40
25514;BMP180;48128;54.242;10.280;2023-06-26T03:50:22;100837.00;;;16.40
25514;BMP180;48128;54.242;10.280;2023-06-26T03:52:49;100843.00;;;16.40
25514;BMP180;48128;54.242;10.280;2023-06-26T03:55:17;100836.00;;;16.40
25514;BMP180;48128;54.242;10.280;2023-06-26T03:57:45;100830.00;;;16.50
25514;BMP180;48128;54.242;10.280;2023-06-26T04:00:13;100829.00;;;16.50
25514;BMP180;48128;54.242;10.280;2023-06-26T04:02:40;100839.00;;;16.50
25514;BMP180;48128;54.242;10.280;2023-06-26T04:05:08;100831.00;;;16.60
25514;BMP180;48128;54.242;10.280;2023-06-26T04:07:37;100826.00;;;16.60
25514;BMP180;48128;54.242;10.280;2023-06-26T04:10:05;100813.00;;;16.60
25514;BMP180;48128;54.242;10.280;2023-06-26T04:12:32;100815.00;;;16.70
25514;BMP180;48128;54.242;10.280;2023-06-26T04:15:00;100806.00;;;16.80
25514;BMP180;48128;54.242;10.280;2023-06-26T04:17:27;100807.00;;;16.80
25514;BMP180;48128;54.242;10.280;2023-06-26T04:19:54;100799.00;;;16.90
25514;BMP180;48128;54.242;10.280;2023-06-26T04:22:21;100802.00;;;16.90
25514;BMP180;48128;54.242;10.280;2023-06-26T04:24:48;100801.00;;;17.00
25514;BMP180;48128;54.242;10.280;2023-06-26T04:27:16;100798.00;;;17.00
25514;BMP180;48128;54.242;10.280;2023-06-26T04:29:44;100797.00;;;17.10
25514;BMP180;48128;54.242;10.280;2023-06-26T04:32:11;100784.00;;;17.20
25514;BMP180;48128;54.242;10.280;2023-06-26T04:34:38;100781.00;;;17.20
25514;BMP180;48128;54.242;10.280;2023-06-26T04:37:07;100785.00;;;17.30
25514;BMP180;48128;54.242;10.280;2023-06-26T04:39:37;100777.00;;;17.40
25514;BMP180;48128;54.242;10.280;2023-06-26T04:42:05;100774.00;;;17.50
25514;BMP180;48128;54.242;10.280;2023-06-26T04:44:33;100780.00;;;17.50
25514;BMP180;48128;54.242;10.280;2023-06-26T04:47:08;100773.00;;;17.60
25514;BMP180;48128;54.242;10.280;2023-06-26T04:49:36;100778.00;;;17.80
25514;BMP180;48128;54.242;10.280;2023-06-26T04:52:05;100771.00;;;17.90
25514;BMP180;48128;54.242;10.280;2023-06-26T04:54:32;100771.00;;;18.00
25514;BMP180;48128;54.242;10.280;2023-06-26T04:56:59;100771.00;;;18.10
25514;BMP180;48128;54.242;10.280;2023-06-26T04:59:26;100781.00;;;18.10
25514;BMP180;48128;54.242;10.280;2023-06-26T05:01:53;100782.00;;;18.30
25514;BMP180;48128;54.242;10.280;2023-06-26T05:04:20;100772.00;;;18.40
25514;BMP180;48128;54.242;10.280;2023-06-26T05:06:47;100766.00;;;18.50
25514;BMP180;48128;54.242;10.280;2023-06-26T05:09:14;100762.00;;;18.60
25514;BMP180;48128;54.242;10.280;2023-06-26T05:11:41;100776.00;;;18.80
25514;BMP180;48128;54.242;10.280;2023-06-26T05:14:08;100777.00;;;18.90
25514;BMP180;48128;54.242;10.280;2023-06-26T05:16:36;100774.00;;;19.10
25514;BMP180;48128;54.242;10.280;2023-06-26T05:19:03;100772.00;;;19.20
25514;BMP180;48128;54.242;10.280;2023-06-26T05:21:30;100778.00;;;19.30
25514;BMP180;48128;54.242;10.280;2023-06-26T05:23:57;100778.00;;;19.50
25514;BMP180;48128;54.242;10.280;2023-06-26T05:26:25;100770.00;;;19.50
25514;BMP180;48128;54.242;10.280;2023-06-26T05:28:53;100762.00;;;19.60
25514;BMP180;48128;54.242;10.280;2023-06-26T05:31:20;100766.00;;;19.70
25514;BMP180;48128;54.242;10.280;2023-06-26T05:33:48;100766.00;;;19.80
25514;BMP180;48128;54.242;10.280;2023-06-26T05:36:16;100770.00;;;19.90
25514;BMP180;48128;54.242;10.280;2023-06-26T05:38:43;100763.00;;;20.00
25514;BMP180;48128;54.242;10.280;2023-06-26T05:41:11;100765.00;;;20.10
25514;BMP180;48128;54.242;10.280;2023-06-26T05:43:38;100766.00;;;20.20
25514;BMP180;48128;54.242;10.280;2023-06-26T05:46:38;100768.00;;;20.30
25514;BMP180;48128;54.242;10.280;2023-06-26T05:49:05;100774.00;;;20.40
25514;BMP180;48128;54.242;10.280;2023-06-26T05:51:34;100757.00;;;20.40
25514;BMP180;48128;54.242;10.280;2023-06-26T05:54:02;100762.00;;;20.50
25514;BMP180;48128;54.242;10.280;2023-06-26T05:56:29;100753.00;;;20.50
25514;BMP180;48128;54.242;10.280;2023-06-26T05:58:57;100758.00;;;20.60
25514;BMP180;48128;54.242;10.280;2023-06-26T06:01:24;100745.00;;;20.60
25514;BMP180;48128;54.242;10.280;2023-06-26T06:03:51;100743.00;;;20.70
25514;BMP180;48128;54.242;10.280;2023-06-26T06:06:21;100740.00;;;20.80
25514;BMP180;48128;54.242;10.280;2023-06-26T06:08:48;100740.00;;;20.90
25514;BMP180;48128;54.242;10.280;2023-06-26T06:11:15;100747.00;;;20.90
25514;BMP180;48128;54.242;10.280;2023-06-26T06:13:43;100741.00;;;21.00
25514;BMP180;48128;54.242;10.280;2023-06-26T06:16:10;100750.00;;;21.10
25514;BMP180;48128;54.242;10.280;2023-06-26T06:18:37;100749.00;;;21.20
25514;BMP180;48128;54.242;10.280;2023-06-26T06:21:04;100748.00;;;21.30
25514;BMP180;48128;54.242;10.280;2023-06-26T06:23:31;100753.00;;;21.30
25514;BMP180;48128;54.242;10.280;2023-06-26T06:25:58;100753.00;;;21.40
25514;BMP180;48128;54.242;10.280;2023-06-26T06:28:28;100754.00;;;21.50
25514;BMP180;48128;54.242;10.280;2023-06-26T06:30:56;100750.00;;;21.50
25514;BMP180;48128;54.242;10.280;2023-06-26T06:36:09;100735.00;;;21.70
25514;BMP180;48128;54.242;10.280;2023-06-26T06:38:36;100734.00;;;21.80
25514;BMP180;48128;54.242;10.280;2023-06-26T06:41:03;100719.00;;;21.90
25514;BMP180;48128;54.242;10.280;2023-06-26T06:43:30;100716.00;;;21.90
25514;BMP180;48128;54.242;10.280;2023-06-26T06:45:58;100724.00;;;22.00
25514;BMP180;48128;54.242;10.280;2023-06-26T06:48:25;100713.00;;;22.10
25514;BMP180;48128;54.242;10.280;2023-06-26T06:50:52;100720.00;;;22.10
25514;BMP180;48128;54.242;10.280;2023-06-26T06:53:20;100705.00;;;22.20
25514;BMP180;48128;54.242;10.280;2023-06-26T06:55:47;100713.00;;;22.20
25514;BMP180;48128;54.242;10.280;2023-06-26T06:58:19;100708.00;;;22.30
25514;BMP180;48128;54.242;10.280;2023-06-26T07:00:49;100715.00;;;22.40
25514;BMP180;48128;54.242;10.280;2023-06-26T07:03:21;100712.00;;;22.50
25514;BMP180;48128;54.242;10.280;2023-06-26T07:05:50;100719.00;;;22.70
25514;BMP180;48128;54.242;10.280;2023-06-26T07:08:19;100702.00;;;22.80
25514;BMP180;48128;54.242;10.280;2023-06-26T07:10:51;100709.00;;;22.90
25514;BMP180;48128;54.242;10.280;2023-06-26T07:13:18;100713.00;;;23.00
25514;BMP180;48128;54.242;10.280;2023-06-26T07:15:45;100695.00;;;23.10
25514;BMP180;48128;54.242;10.280;2023-06-26T07:18:14;100701.00;;;23.20
25514;BMP180;48128;54.242;10.280;2023-06-26T07:20:51;100688.00;;;23.30
25514;BMP180;48128;54.242;10.280;2023-06-26T07:23:28;100692.00;;;23.40
25514;BMP180;48128;54.242;10.280;2023-06-26T07:25:55;100683.00;;;23.50
25514;BMP180;48128;54.242;10.280;2023-06-26T07:28:26;100685.00;;;23.50
25514;BMP180;48128;54.242;10.280;2023-06-26T07:31:01;100689.00;;;23.60
25514;BMP180;48128;54.242;10.280;2023-06-26T07:33:41;100685.00;;;23.70
25514;BMP180;48128;54.242;10.280;2023-06-26T07:36:17;100678.00;;;23.80
25514;BMP180;48128;54.242;10.280;2023-06-26T07:38:47;100677.00;;;23.90
25514;BMP180;48128;54.242;10.280;2023-06-26T07:41:15;100675.00;;;24.10
25514;BMP180;48128;54.242;10.280;2023-06-26T07:43:42;100675.00;;;24.20
25514;BMP180;48128;54.242;10.280;2023-06-26T07:46:13;100687.00;;;24.30
25514;BMP180;48128;54.242;10.280;2023-06-26T07:48:49;100679.00;;;24.50
25514;BMP180;48128;54.242;10.280;2023-06-26T07:51:30;100672.00;;;24.70
25514;BMP180;48128;54.242;10.280;2023-06-26T07:53:58;100669.00;;;24.90
25514;BMP180;48128;54.242;10.280;2023-06-26T07:56:25;100663.00;;;25.00
25514;BMP180;48128;54.242;10.280;2023-06-26T07:58:52;100668.00;;;25.20
25514;BMP180;48128;54.242;10.280;2023-06-26T08:01:19;100652.00;;;25.40
25514;BMP180;48128;54.242;10.280;2023-06-26T08:06:28;100654.00;;;25.70
25514;BMP180;48128;54.242;10.280;2023-06-26T08:08:55;100644.00;;;25.90
25514;BMP180;48128;54.242;10.280;2023-06-26T08:11:22;100651.00;;;26.00
25514;BMP180;48128;54.242;10.280;2023-06-26T08:13:49;100655.00;;;26.20
25514;BMP180;48128;54.242;10.280;2023-06-26T08:16:16;100646.00;;;26.30
25514;BMP180;48128;54.242;10.280;2023-06-26T08:18:42;100640.00;;;26.50
25514;BMP180;48128;54.242;10.280;2023-06-26T08:21:10;100635.00;;;26.70
25514;BMP180;48128;54.242;10.280;2023-06-26T08:23:37;100645.00;;;26.90
25514;BMP180;48128;54.242;10.280;2023-06-26T08:26:04;100643.00;;;27.10
25514;BMP180;48128;54.242;10.280;2023-06-26T08:28:31;100646.00;;;27.30
25514;BMP180;48128;54.242;10.280;2023-06-26T08:30:58;100631.00;;;27.40
25514;BMP180;48128;54.242;10.280;2023-06-26T08:33:26;100636.00;;;27.50
25514;BMP180;48128;54.242;10.280;2023-06-26T08:35:53;100628.00;;;27.60
25514;BMP180;48128;54.242;10.280;2023-06-26T08:38:20;100623.00;;;27.90
25514;BMP180;48128;54.242;10.280;2023-06-26T08:40:51;100626.00;;;28.10
25514;BMP180;48128;54.242;10.280;2023-06-26T08:43:18;100616.00;;;28.30
25514;BMP180;48128;54.242;10.280;2023-06-26T08:45:48;100613.00;;;28.30
25514;BMP180;48128;54.242;10.280;2023-06-26T08:48:18;100608.00;;;28.50
25514;BMP180;48128;54.242;10.280;2023-06-26T08:50:52;100599.00;;;28.70
25514;BMP180;48128;54.242;10.280;2023-06-26T08:53:52;100602.00;;;28.80
25514;BMP180;48128;54.242;10.280;2023-06-26T08:56:20;100603.00;;;28.90
25514;BMP180;48128;54.242;10.280;2023-06-26T08:58:49;100587.00;;;29.10
25514;BMP180;48128;54.242;10.280;2023-06-26T09:01:16;100587.00;;;29.30
25514;BMP180;48128;54.242;10.280;2023-06-26T09:03:44;100580.00;;;29.50
25514;BMP180;48128;54.242;10.280;2023-06-26T09:06:11;100605.00;;;29.50
25514;BMP180;48128;54.242;10.280;2023-06-26T09:08:38;100606.00;;;29.30
25514;BMP180;48128;54.242;10.280;2023-06-26T09:11:05;100609.00;;;28.90
25514;BMP180;48128;54.242;10.280;2023-06-26T09:13:33;100594.00;;;28.60
25514;BMP180;48128;54.242;10.280;2023-06-26T09:16:04;100591.00;;;28.40
25514;BMP180;48128;54.242;10.280;2023-06-26T09:18:32;100602.00;;;28.30
25514;BMP180;48128;54.242;10.280;2023-06-26T09:20:59;100606.00;;;28.10
25514;BMP180;48128;54.242;10.280;2023-06-26T09:23:31;100615.00;;;27.70
25514;BMP180;48128;54.242;10.280;2023-06-26T09:25:59;100623.00;;;27.50
25514;BMP180;48128;54.242;10.280;2023-06-26T09:28:28;100622.00;;;27.40
25514;BMP180;48128;54.242;10.280;2023-06-26T09:31:02;100606.00;;;27.10
25514;BMP180;48128;54.242;10.280;2023-06-26T09:33:35;100574.00;;;26.70
25514;BMP180;48128;54.242;10.280;2023-06-26T09:36:08;100556.00;;;26.50
25514;BMP180;48128;54.242;10.280;2023-06-26T16:12:13;100959.00;;;21.30
25514;BMP180;48128;54.242;10.280;2023-06-26T16:14:40;100980.00;;;21.30
25514;BMP180;48128;54.242;10.280;2023-06-26T16:17:08;100976.00;;;21.30
25514;BMP180;48128;54.242;10.280;2023-06-26T16:19:35;100985.00;;;21.30
25514;BMP180;48128;54.242;10.280;2023-06-26T16:22:02;100985.00;;;21.20
25514;BMP180;48128;54.242;10.280;2023-06-26T16:24:28;100978.00;;;21.30
25514;BMP180;48128;54.242;10.280;2023-06-26T16:26:55;100969.00;;;21.20
25514;BMP180;48128;54.242;10.280;2023-06-26T16:29:22;100989.00;;;21.20
25514;BMP180;48128;54.242;10.280;2023-06-26T16:31:49;100998.00;;;21.10
25514;BMP180;48128;54.242;10.280;2023-06-26T16:34:16;100997.00;;;21.00
25514;BMP180;48128;54.242;10.280;2023-06-26T16:36:43;100991.00;;;21.00
25514;BMP180;48128;54.242;10.280;2023-06-26T16:39:16;101002.00;;;21.00
25514;BMP180;48128;54.242;10.280;2023-06-26T16:41:53;100997.00;;;20.90
25514;BMP180;48128;54.242;10.280;2023-06-26T16:44:21;100988.00;;;20.80
25514;BMP180;48128;54.242;10.280;2023-06-26T16:46:48;100991.00;;;20.80
25514;BMP180;48128;54.242;10.280;2023-06-26T16:49:15;101001.00;;;20.80
25514;BMP180;48128;54.242;10.280;2023-06-26T16:51:41;100990.00;;;20.80
25514;BMP180;48128;54.242;10.280;2023-06-26T16:54:08;100991.00;;;20.80
25514;BMP180;48128;54.242;10.280;2023-06-26T16:56:36;101001.00;;;20.80
25514;BMP180;48128;54.242;10.280;2023-06-26T16:59:03;101007.00;;;20.90
25514;BMP180;48128;54.242;10.280;2023-06-26T17:01:30;101001.00;;;20.80
25514;BMP180;48128;54.242;10.280;2023-06-26T17:03:57;101002.00;;;20.80
25514;BMP180;48128;54.242;10.280;2023-06-26T17:06:24;101010.00;;;20.70
25514;BMP180;48128;54.242;10.280;2023-06-26T17:08:51;100999.00;;;20.60
25514;BMP180;48128;54.242;10.280;2023-06-26T17:11:17;101007.00;;;20.60
25514;BMP180;48128;54.242;10.280;2023-06-26T17:13:44;101009.00;;;20.50
25514;BMP180;48128;54.242;10.280;2023-06-26T17:16:12;101009.00;;;20.40
25514;BMP180;48128;54.242;10.280;2023-06-26T17:18:39;101001.00;;;20.40
25514;BMP180;48128;54.242;10.280;2023-06-26T17:21:06;101006.00;;;20.30
25514;BMP180;48128;54.242;10.280;2023-06-26T17:23:32;101012.00;;;20.30
25514;BMP180;48128;54.242;10.280;2023-06-26T17:25:59;101006.00;;;20.30
25514;BMP180;48128;54.242;10.280;2023-06-26T17:28:29;101015.00;;;20.30
25514;BMP180;48128;54.242;10.280;2023-06-26T17:30:57;101014.00;;;20.20
25514;BMP180;48128;54.242;10.280;2023-06-26T17:33:24;101002.00;;;20.30
25514;BMP180;48128;54.242;10.280;2023-06-26T17:35:51;101009.00;;;20.30
25514;BMP180;48128;54.242;10.280;2023-06-26T17:38:18;101023.00;;;20.40
25514;BMP180;48128;54.242;10.280;2023-06-26T17:40:45;101024.00;;;20.40
25514;BMP180;48128;54.242;10.280;2023-06-26T17:43:12;101020.00;;;20.40
25514;BMP180;48128;54.242;10.280;2023-06-26T17:45:42;101035.00;;;20.40
25514;BMP180;48128;54.242;10.280;2023-06-26T17:48:09;101041.00;;;20.40
25514;BMP180;48128;54.242;10.280;2023-06-26T17:50:37;101047.00;;;20.40
25514;BMP180;48128;54.242;10.280;2023-06-26T17:53:16;101055.00;;;20.40
25514;BMP180;48128;54.242;10.280;2023-06-26T17:55:57;101070.00;;;20.20
25514;BMP180;48128;54.242;10.280;2023-06-26T17:58:27;101077.00;;;20.10
25514;BMP180;48128;54.242;10.280;2023-06-26T18:01:00;101071.00;;;20.00
25514;BMP180;48128;54.242;10.280;2023-06-26T18:03:27;101071.00;;;19.90
25514;BMP180;48128;54.242;10.280;2023-06-26T18:05:55;101080.00;;;19.70
25514;BMP180;48128;54.242;10.280;2023-06-26T18:08:22;101067.00;;;19.60
25514;BMP180;48128;54.242;10.280;2023-06-26T18:10:48;101068.00;;;19.60
25514;BMP180;48128;54.242;10.280;2023-06-26T18:13:15;101064.00;;;19.60
25514;BMP180;48128;54.242;10.280;2023-06-26T18:15:42;101078.00;;;19.60
25514;BMP180;48128;54.242;10.280;2023-06-26T18:18:09;101080.00;;;19.60
25514;BMP180;48128;54.242;10.280;2023-06-26T18:20:36;101071.00;;;19.60
25514;BMP180;48128;54.242;10.280;2023-06-26T18:23:03;101075.00;;;19.60
25514;BMP180;48128;54.242;10.280;2023-06-26T18:25:31;101063.00;;;19.50
25514;BMP180;48128;54.242;10.280;2023-06-26T18:28:00;101064.00;;;19.50
25514;BMP180;48128;54.242;10.280;2023-06-26T18:30:27;101067.00;;;19.50
25514;BMP180;48128;54.242;10.280;2023-06-26T18:32:53;101062.00;;;19.40
25514;BMP180;48128;54.242;10.280;2023-06-26T18:35:21;101069.00;;;19.40
25514;BMP180;48128;54.242;10.280;2023-06-26T18:37:48;101069.00;;;19.30
25514;BMP180;48128;54.242;10.280;2023-06-26T18:40:19;101073.00;;;19.30
25514;BMP180;48128;54.242;10.280;2023-06-26T18:42:46;101055.00;;;19.30
25514;BMP180;48128;54.242;10.280;2023-06-26T18:45:13;101068.00;;;19.30
25514;BMP180;48128;54.242;10.280;2023-06-26T18:47:40;101065.00;;;19.20
25514;BMP180;48128;54.242;10.280;2023-06-26T18:50:08;101060.00;;;19.10
25514;BMP180;48128;54.242;10.280;2023-06-26T18:56:12;101071.00;;;19.00
25514;BMP180;48128;54.242;10.280;2023-06-26T18:58:39;101056.00;;;19.00
25514;BMP180;48128;54.242;10.280;2023-06-26T19:01:06;101062.00;;;18.90
25514;BMP180;48128;54.242;10.280;2023-06-26T19:03:36;101062.00;;;18.80
25514;BMP180;48128;54.242;10.280;2023-06-26T19:06:03;101052.00;;;18.80
25514;BMP180;48128;54.242;10.280;2023-06-26T19:08:30;101074.00;;;18.70
25514;BMP180;48128;54.242;10.280;2023-06-26T19:10:57;101062.00;;;18.60
25514;BMP180;48128;54.242;10.280;2023-06-26T19:13:24;101063.00;;;18.60
25514;BMP180;48128;54.242;10.280;2023-06-26T19:15:51;101058.00;;;18.50
25514;BMP180;48128;54.242;10.280;2023-06-26T19:18:18;101061.00;;;18.50
25514;BMP180;48128;54.242;10.280;2023-06-26T19:20:45;101054.00;;;18.40
25514;BMP180;48128;54.242;10.280;2023-06-26T19:23:12;101071.00;;;18.30
25514;BMP180;48128;54.242;10.280;2023-06-26T19:25:38;101067.00;;;18.20
25514;BMP180;48128;54.242;10.280;2023-06-26T19:28:06;101061.00;;;18.20
25514;BMP180;48128;54.242;10.280;2023-06-26T19:30:33;101070.00;;;18.20
25514;BMP180;48128;54.242;10.280;2023-06-26T19:33:00;101075.00;;;18.20
25514;BMP180;48128;54.242;10.280;2023-06-26T19:35:27;101064.00;;;18.10
25514;BMP180;48128;54.242;10.280;2023-06-26T19:37:54;101071.00;;;18.10
25514;BMP180;48128;54.242;10.280;2023-06-26T19:40:32;101067.00;;;18.00
25514;BMP180;48128;54.242;10.280;2023-06-26T19:43:00;101071.00;;;18.00
25514;BMP180;48128;54.242;10.280;2023-06-26T19:45:31;101072.00;;;18.00
25514;BMP180;48128;54.242;10.280;2023-06-26T19:47:59;101073.00;;;18.00
25514;BMP180;48128;54.242;10.280;2023-06-26T19:50:26;101078.00;;;18.00
25514;BMP180;48128;54.242;10.280;2023-06-26T19:52:54;101084.00;;;18.00
25514;BMP180;48128;54.242;10.280;2023-06-26T19:55:23;101080.00;;;17.90
25514;BMP180;48128;54.242;10.280;2023-06-26T19:57:50;101085.00;;;17.90
25514;BMP180;48128;54.242;10.280;2023-06-26T20:00:17;101079.00;;;17.90
25514;BMP180;48128;54.242;10.280;2023-06-26T20:05:25;101084.00;;;17.80
25514;BMP180;48128;54.242;10.280;2023-06-26T20:07:56;101086.00;;;17.70
25514;BMP180;48128;54.242;10.280;2023-06-26T20:10:23;101074.00;;;17.70
25514;BMP180;48128;54.242;10.280;2023-06-26T20:12:50;101084.00;;;17.60
25514;BMP180;48128;54.242;10.280;2023-06-26T20:15:18;101078.00;;;17.50
25514;BMP180;48128;54.242;10.280;2023-06-26T20:17:48;101087.00;;;17.50
25514;BMP180;48128;54.242;10.280;2023-06-26T20:20:15;101094.00;;;17.40
25514;BMP180;48128;54.242;10.280;2023-06-26T20:22:44;101090.00;;;17.40
25514;BMP180;48128;54.242;10.280;2023-06-26T20:25:11;101106.00;;;17.30
25514;BMP180;48128;54.242;10.280;2023-06-26T20:27:37;101099.00;;;17.30
25514;BMP180;48128;54.242;10.280;2023-06-26T20:30:06;101099.00;;;17.30
25514;BMP180;48128;54.242;10.280;2023-06-26T20:32:33;101108.00;;;17.30
25514;BMP180;48128;54.242;10.280;2023-06-26T20:35:00;101106.00;;;17.20
25514;BMP180;48128;54.242;10.280;2023-06-26T20:37:28;101101.00;;;17.10
25514;BMP180;48128;54.242;10.280;2023-06-26T20:39:55;101106.00;;;17.10
25514;BMP180;48128;54.242;10.280;2023-06-26T20:42:23;101110.00;;;17.00
25514;BMP180;48128;54.242;10.280;2023-06-26T20:44:50;101111.00;;;17.00